createdAt,value
2022-07-25T00:00:31.841Z,75.94
2022-07-25T00:03:00.005Z,76.08
2022-07-25T00:05:28.299Z,76.06
2022-07-25T00:07:57.698Z,75.94
2022-07-25T00:10:25.856Z,75.87
2022-07-25T00:12:53.729Z,75.66
2022-07-25T00:15:21.681Z,75.54
2022-07-25T00:17:49.671Z,75.20
2022-07-25T00:20:17.643Z,75.17
2022-07-25T00:22:45.694Z,75.03
2022-07-25T00:25:15.062Z,74.86
2022-07-25T00:27:43.018Z,74.39
2022-07-25T00:30:12.070Z,74.18
2022-07-25T00:32:40.031Z,73.81
2022-07-25T00:35:08.460Z,73.72
2022-07-25T00:37:36.597Z,73.52
2022-07-25T00:40:05.367Z,73.62
2022-07-25T00:42:35.058Z,73.51
2022-07-25T00:45:03.096Z,73.33
2022-07-25T00:47:31.466Z,73.45
2022-07-25T00:49:59.409Z,73.29
2022-07-25T00:52:27.676Z,73.04
2022-07-25T00:54:56.847Z,73.04
2022-07-25T00:57:24.860Z,72.89
2022-07-25T00:59:54.174Z,73.06
2022-07-25T01:02:22.423Z,72.83
2022-07-25T01:04:50.386Z,72.74
2022-07-25T01:07:18.615Z,72.75
2022-07-25T01:09:47.199Z,72.47
2022-07-25T01:12:15.105Z,72.54
2022-07-25T01:14:43.092Z,72.51
2022-07-25T01:17:13.423Z,72.62
2022-07-25T01:19:41.350Z,72.36
2022-07-25T01:22:11.199Z,72.51
2022-07-25T01:24:40.861Z,72.24
2022-07-25T01:27:08.923Z,72.30
2022-07-25T01:29:45.394Z,72.41
2022-07-25T01:32:13.633Z,72.50
2022-07-25T01:34:41.487Z,72.71
2022-07-25T01:37:10.825Z,72.78
2022-07-25T01:39:38.707Z,72.73
2022-07-25T01:42:07.570Z,72.83
2022-07-25T01:44:35.645Z,72.63
2022-07-25T01:47:03.529Z,72.79
2022-07-25T01:49:31.576Z,72.80
2022-07-25T01:51:59.796Z,72.95
2022-07-25T01:54:29.231Z,73.11
2022-07-25T01:56:57.110Z,73.02
2022-07-25T01:59:25.182Z,73.06
2022-07-25T02:01:53.081Z,73.34
2022-07-25T02:04:21.129Z,73.31
2022-07-25T02:06:49.649Z,73.39
2022-07-25T02:09:17.515Z,73.45
2022-07-25T02:11:46.849Z,73.57
2022-07-25T02:14:14.914Z,73.49
2022-07-25T02:16:43.021Z,73.64
2022-07-25T02:19:10.977Z,73.63
2022-07-25T02:21:39.177Z,73.68
2022-07-25T02:24:08.144Z,73.45
2022-07-25T02:26:36.294Z,73.47
2022-07-25T02:29:05.976Z,73.62
2022-07-25T02:31:33.818Z,73.24
2022-07-25T02:34:01.764Z,73.42
2022-07-25T02:36:29.784Z,73.45
2022-07-25T02:38:57.688Z,73.37
2022-07-25T02:41:25.528Z,73.32
2022-07-25T02:43:53.729Z,73.51
2022-07-25T02:46:23.123Z,73.48
2022-07-25T02:48:51.150Z,73.46
2022-07-25T02:51:19.808Z,73.45
2022-07-25T02:53:57.113Z,73.30
2022-07-25T02:56:26.082Z,73.33
2022-07-25T02:58:57.548Z,73.28
2022-07-25T03:01:27.318Z,73.24
2022-07-25T03:03:55.302Z,73.36
2022-07-25T03:06:23.385Z,73.21
2022-07-25T03:08:51.539Z,73.07
2022-07-25T03:11:19.473Z,73.03
2022-07-25T03:13:47.569Z,73.15
2022-07-25T03:16:15.821Z,73.11
2022-07-25T03:18:45.095Z,72.88
2022-07-25T03:21:13.006Z,72.94
2022-07-25T03:23:41.213Z,72.99
2022-07-25T03:26:09.079Z,72.90
2022-07-25T03:28:36.924Z,72.98
2022-07-25T03:31:06.319Z,72.91
2022-07-25T03:33:35.053Z,72.82
2022-07-25T03:36:04.966Z,72.93
2022-07-25T03:38:32.996Z,72.63
2022-07-25T03:41:00.960Z,72.88
2022-07-25T03:43:29.756Z,72.77
2022-07-25T03:45:57.998Z,72.96
2022-07-25T03:48:25.974Z,72.84
2022-07-25T03:50:53.916Z,72.77
2022-07-25T03:53:23.592Z,72.82
2022-07-25T03:55:51.601Z,72.98
2022-07-25T03:58:19.554Z,73.08
2022-07-25T04:00:48.859Z,72.93
2022-07-25T04:03:17.043Z,73.17
2022-07-25T04:05:47.533Z,73.04
2022-07-25T04:08:15.864Z,73.29
2022-07-25T04:10:45.299Z,73.21
2022-07-25T04:13:13.255Z,73.33
2022-07-25T04:15:41.474Z,73.32
2022-07-25T04:18:10.123Z,73.68
2022-07-25T04:20:42.672Z,73.78
2022-07-25T04:23:10.633Z,73.68
2022-07-25T04:25:38.690Z,73.84
2022-07-25T04:28:08.008Z,73.81
2022-07-25T04:30:35.979Z,73.85
2022-07-25T04:33:04.170Z,73.80
2022-07-25T04:35:32.276Z,73.93
2022-07-25T04:38:00.290Z,74.02
2022-07-25T04:40:28.254Z,73.99
2022-07-25T04:42:56.542Z,73.89
2022-07-25T04:45:26.240Z,73.81
2022-07-25T04:47:54.279Z,73.74
2022-07-25T04:50:24.915Z,73.79
2022-07-25T04:52:54.070Z,73.98
2022-07-25T04:55:22.343Z,73.91
2022-07-25T04:57:50.431Z,74.04
2022-07-25T05:00:19.166Z,73.67
2022-07-25T05:02:48.432Z,73.20
2022-07-25T05:05:21.110Z,73.13
2022-07-25T05:07:50.000Z,73.11
2022-07-25T05:10:18.186Z,72.87
2022-07-25T05:12:46.195Z,72.58
2022-07-25T05:15:14.180Z,72.44
2022-07-25T05:17:42.105Z,72.33
2022-07-25T05:20:12.734Z,72.39
2022-07-25T05:22:40.718Z,72.13
2022-07-25T05:25:10.970Z,72.30
2022-07-25T05:27:39.872Z,72.31
2022-07-25T05:30:10.907Z,72.15
2022-07-25T05:32:39.593Z,72.09
2022-07-25T05:35:09.504Z,72.35
2022-07-25T05:37:39.344Z,72.25
2022-07-25T05:40:08.548Z,72.32
2022-07-25T05:42:36.712Z,72.42
2022-07-25T05:45:05.586Z,72.39
2022-07-25T05:47:33.649Z,72.33
2022-07-25T05:50:02.289Z,72.25
2022-07-25T05:52:30.472Z,72.34
2022-07-25T05:54:59.910Z,72.35
2022-07-25T05:57:28.030Z,72.27
2022-07-25T05:59:56.064Z,72.27
2022-07-25T06:02:24.300Z,72.29
2022-07-25T06:04:52.253Z,71.80
2022-07-25T06:07:20.233Z,71.85
2022-07-25T06:09:48.187Z,71.63
2022-07-25T06:12:17.514Z,71.81
2022-07-25T06:14:45.469Z,71.72
2022-07-25T06:17:13.559Z,71.82
2022-07-25T06:19:41.506Z,72.06
2022-07-25T06:22:09.491Z,72.24
2022-07-25T06:24:37.510Z,71.91
2022-07-25T06:27:05.938Z,71.81
2022-07-25T06:29:35.293Z,71.79
2022-07-25T06:32:03.240Z,71.80
2022-07-25T06:34:31.552Z,71.50
2022-07-25T06:36:59.484Z,71.59
2022-07-25T06:39:28.700Z,71.29
2022-07-25T06:41:57.444Z,70.85
2022-07-25T06:44:25.362Z,71.21
2022-07-25T06:46:54.730Z,71.60
2022-07-25T06:49:22.856Z,71.08
2022-07-25T06:51:50.853Z,71.21
2022-07-25T06:54:19.258Z,70.95
2022-07-25T06:56:47.514Z,70.86
2022-07-25T06:59:15.652Z,70.52
2022-07-25T07:01:48.204Z,69.85
2022-07-25T07:04:20.605Z,69.11
2022-07-25T07:06:48.741Z,69.33
2022-07-25T07:09:16.660Z,69.73
2022-07-25T07:11:44.649Z,69.72
2022-07-25T07:14:12.600Z,69.26
2022-07-25T07:16:41.408Z,69.46
2022-07-25T07:19:11.100Z,69.08
2022-07-25T07:21:40.488Z,68.92
2022-07-25T07:24:18.521Z,68.23
2022-07-25T07:26:52.952Z,68.52
2022-07-25T07:29:20.846Z,68.02
2022-07-25T07:31:48.856Z,67.05
2022-07-25T07:34:17.189Z,66.82
2022-07-25T07:36:46.471Z,67.48
2022-07-25T07:39:14.688Z,67.53
2022-07-25T07:41:42.886Z,67.15
2022-07-25T07:44:11.810Z,68.00
2022-07-25T07:46:39.742Z,67.19
2022-07-25T07:49:08.212Z,66.31
2022-07-25T07:51:36.497Z,65.61
2022-07-25T07:54:23.994Z,64.99
2022-07-25T07:56:52.015Z,64.88
2022-07-25T07:59:20.094Z,63.80
2022-07-25T08:01:48.138Z,63.25
2022-07-25T08:04:16.448Z,63.26
2022-07-25T08:06:44.453Z,64.43
2022-07-25T08:09:14.057Z,63.52
2022-07-25T08:11:42.078Z,61.23
2022-07-25T08:14:10.542Z,62.03
2022-07-25T08:16:38.864Z,62.06
2022-07-25T08:19:06.823Z,61.47
2022-07-25T08:21:34.788Z,61.00
2022-07-25T08:24:03.128Z,60.17
2022-07-25T08:26:33.969Z,58.03
2022-07-25T08:29:18.261Z,56.71
2022-07-25T08:31:47.088Z,56.69
2022-07-25T08:34:15.198Z,56.10
2022-07-25T08:36:43.150Z,55.59
2022-07-25T08:39:11.186Z,53.78
2022-07-25T08:41:42.370Z,52.55
2022-07-25T08:44:10.806Z,54.53
2022-07-25T08:46:41.880Z,55.58
2022-07-25T08:49:10.688Z,56.28
2022-07-25T08:51:40.954Z,56.80
2022-07-25T08:54:10.497Z,57.22
2022-07-25T08:56:38.829Z,57.73
2022-07-25T08:59:09.835Z,58.21
2022-07-25T09:01:40.651Z,59.28
2022-07-25T09:04:10.307Z,59.69
2022-07-25T09:06:38.735Z,60.19
2022-07-25T09:09:08.747Z,60.77
2022-07-25T09:11:38.275Z,61.32
2022-07-25T09:14:14.743Z,61.46
2022-07-25T09:16:45.061Z,61.71
2022-07-25T09:19:16.283Z,62.53
2022-07-25T09:21:46.012Z,62.36
2022-07-25T09:24:17.018Z,62.51
2022-07-25T09:26:49.548Z,62.45
2022-07-25T09:29:21.602Z,62.41
2022-07-25T09:31:50.657Z,62.08
2022-07-25T09:34:31.297Z,62.25
2022-07-25T09:36:59.584Z,62.08
2022-07-25T09:39:35.334Z,62.27
2022-07-25T09:42:04.276Z,62.25
2022-07-25T09:44:33.502Z,62.63
2022-07-25T09:47:12.020Z,62.63
2022-07-25T09:49:44.257Z,62.78
2022-07-25T09:52:13.231Z,62.27
2022-07-25T09:54:41.784Z,62.35
2022-07-25T09:57:09.742Z,61.99
2022-07-25T09:59:39.677Z,61.16
2022-07-25T10:02:10.731Z,61.02
2022-07-25T10:04:46.173Z,61.84
2022-07-25T10:07:16.876Z,60.43
2022-07-25T10:09:47.008Z,59.84
2022-07-25T10:12:19.423Z,60.29
2022-07-25T10:15:08.578Z,60.28
2022-07-25T10:17:37.988Z,60.79
2022-07-25T10:20:08.426Z,61.25
2022-07-25T10:22:55.691Z,60.68
2022-07-25T10:25:24.938Z,61.33
2022-07-25T10:28:00.206Z,60.83
2022-07-25T10:30:36.268Z,61.11
2022-07-25T10:33:07.722Z,61.89
2022-07-25T10:35:35.674Z,61.00
2022-07-25T10:38:06.671Z,61.43
2022-07-25T10:40:38.313Z,61.48
2022-07-25T10:43:10.963Z,61.33
2022-07-25T10:45:42.809Z,61.94
2022-07-25T10:48:13.070Z,61.33
2022-07-25T10:50:55.835Z,61.11
2022-07-25T10:53:38.499Z,61.47
2022-07-25T10:56:11.470Z,61.29
2022-07-25T10:58:51.102Z,62.06
2022-07-25T11:01:27.213Z,62.92
2022-07-25T11:03:56.585Z,62.79
2022-07-25T11:06:33.138Z,62.81
2022-07-25T11:09:01.512Z,62.78
2022-07-25T11:11:37.425Z,63.88
2022-07-25T11:14:07.037Z,63.61
2022-07-25T11:16:36.609Z,63.91
2022-07-25T11:19:04.977Z,64.27
2022-07-25T11:21:33.006Z,64.42
2022-07-25T11:24:00.990Z,64.53
2022-07-25T11:26:28.931Z,64.97
2022-07-25T11:28:56.842Z,64.86
2022-07-25T11:33:54.603Z,65.78
2022-07-25T11:36:22.619Z,65.93
2022-07-25T11:38:51.151Z,66.32
2022-07-25T11:41:30.548Z,66.34
2022-07-25T11:43:58.500Z,66.33
2022-07-25T11:46:27.012Z,66.26
2022-07-25T11:49:06.468Z,66.57
2022-07-25T11:51:38.672Z,66.19
2022-07-25T11:54:12.079Z,66.78
2022-07-25T11:56:42.922Z,66.25
2022-07-25T11:59:11.699Z,66.25
2022-07-25T12:01:41.914Z,66.46
2022-07-25T12:04:14.327Z,67.29
2022-07-25T12:06:42.889Z,66.57
2022-07-25T12:09:18.794Z,67.32
2022-07-25T12:11:48.884Z,66.96
2022-07-25T12:14:17.461Z,67.17
2022-07-25T12:16:45.465Z,68.02
2022-07-25T12:19:23.266Z,68.97
2022-07-25T12:21:51.165Z,68.79
2022-07-25T12:24:19.071Z,70.01
2022-07-25T12:26:47.242Z,70.21
2022-07-25T12:29:15.157Z,71.13
2022-07-25T12:31:42.979Z,71.37
2022-07-25T12:34:11.066Z,72.08
2022-07-25T12:36:44.085Z,71.48
2022-07-25T12:39:12.810Z,70.78
2022-07-25T12:41:42.675Z,71.00
2022-07-25T12:44:11.011Z,70.81
2022-07-25T12:46:45.816Z,70.79
2022-07-25T12:49:17.108Z,70.46
2022-07-25T12:51:46.741Z,70.14
2022-07-25T12:54:21.763Z,69.04
2022-07-25T12:56:51.023Z,68.61
2022-07-25T12:59:18.992Z,67.93
2022-07-25T13:01:46.945Z,68.77
2022-07-25T13:04:15.242Z,68.77
2022-07-25T13:06:43.233Z,69.48
2022-07-25T13:09:12.502Z,68.55
2022-07-25T13:11:40.700Z,67.47
2022-07-25T13:14:08.755Z,67.07
2022-07-25T13:16:37.991Z,66.93
2022-07-25T13:19:06.658Z,66.17
2022-07-25T13:21:35.120Z,66.16
2022-07-25T13:24:03.028Z,65.19
2022-07-25T13:26:32.911Z,63.79
2022-07-25T13:29:01.031Z,63.11
2022-07-25T13:31:29.853Z,63.01
2022-07-25T13:33:58.465Z,63.21
2022-07-25T13:36:27.348Z,63.00
2022-07-25T13:38:55.379Z,62.95
2022-07-25T13:41:23.442Z,63.19
2022-07-25T13:43:52.705Z,63.22
2022-07-25T13:46:20.703Z,63.72
2022-07-25T13:48:49.718Z,63.68
2022-07-25T13:51:17.817Z,64.11
2022-07-25T13:53:45.967Z,64.49
2022-07-25T13:56:14.330Z,64.22
2022-07-25T13:58:42.215Z,64.35
2022-07-25T14:01:12.878Z,63.88
2022-07-25T14:03:41.190Z,64.07
2022-07-25T14:06:11.427Z,64.22
2022-07-25T14:08:41.511Z,64.68
2022-07-25T14:11:09.731Z,64.67
2022-07-25T14:13:38.030Z,65.24
2022-07-25T14:16:06.564Z,65.69
2022-07-25T14:18:36.089Z,66.17
2022-07-25T14:21:04.085Z,66.57
2022-07-25T14:23:32.013Z,66.76
2022-07-25T14:26:00.263Z,66.82
2022-07-25T14:28:28.221Z,66.77
2022-07-25T14:30:56.643Z,66.73
2022-07-25T14:33:24.965Z,66.46
2022-07-25T14:35:54.440Z,66.46
2022-07-25T14:38:22.515Z,66.17
2022-07-25T14:40:50.524Z,65.50
2022-07-25T14:43:18.482Z,65.67
2022-07-25T14:45:46.450Z,64.55
2022-07-25T14:48:14.365Z,63.88
2022-07-25T14:50:42.404Z,63.75
2022-07-25T14:53:12.875Z,63.41
2022-07-25T14:55:41.257Z,63.41
2022-07-25T14:58:09.399Z,63.36
2022-07-25T15:00:41.792Z,63.50
2022-07-25T15:03:10.533Z,63.83
2022-07-25T15:05:39.524Z,63.53
2022-07-25T15:08:10.149Z,63.91
2022-07-25T15:10:39.803Z,63.43
2022-07-25T15:13:29.849Z,63.31
2022-07-25T15:15:56.310Z,62.39
2022-07-25T15:18:24.185Z,61.30
2022-07-25T15:20:52.231Z,58.52
2022-07-25T15:23:21.219Z,57.05
2022-07-25T15:26:06.041Z,56.57
2022-07-25T15:28:34.862Z,58.29
2022-07-25T15:31:03.082Z,58.95
2022-07-25T15:33:31.462Z,59.31
2022-07-25T15:36:00.296Z,59.34
2022-07-25T15:38:29.115Z,59.78
2022-07-25T15:40:58.630Z,59.93
2022-07-25T15:43:27.450Z,60.75
2022-07-25T15:45:55.558Z,61.30
2022-07-25T15:48:23.737Z,61.58
2022-07-25T15:50:52.705Z,62.52
2022-07-25T15:53:20.780Z,62.58
2022-07-25T15:55:48.664Z,63.08
2022-07-25T15:58:18.214Z,63.60
2022-07-25T16:00:46.282Z,64.12
2022-07-25T16:03:14.928Z,63.93
2022-07-25T16:05:45.375Z,63.90
2022-07-25T16:08:13.387Z,63.88
2022-07-25T16:10:41.731Z,64.11
2022-07-25T16:13:09.728Z,64.28
2022-07-25T16:15:39.786Z,64.37
2022-07-25T16:18:07.776Z,64.08
2022-07-25T16:20:35.886Z,64.31
2022-07-25T16:23:04.207Z,64.41
2022-07-25T16:25:32.327Z,63.90
2022-07-25T16:28:01.058Z,63.71
2022-07-25T16:30:29.823Z,63.68
2022-07-25T16:32:59.194Z,63.78
2022-07-25T16:35:27.313Z,63.49
2022-07-25T16:37:55.338Z,63.56
2022-07-25T16:40:27.359Z,63.32
2022-07-25T16:42:59.893Z,63.30
2022-07-25T16:45:28.075Z,62.98
2022-07-25T16:47:56.320Z,63.10
2022-07-25T16:50:25.850Z,62.73
2022-07-25T16:52:54.354Z,62.75
2022-07-25T16:55:22.456Z,62.85
2022-07-25T16:57:50.629Z,62.70
2022-07-25T17:00:18.801Z,62.76
2022-07-25T17:02:46.822Z,63.11
2022-07-25T17:05:14.896Z,62.98
2022-07-25T17:07:44.258Z,62.92
2022-07-25T17:10:12.113Z,63.54
2022-07-25T17:12:40.233Z,63.35
2022-07-25T17:15:09.459Z,63.75
2022-07-25T17:17:37.342Z,64.24
2022-07-25T17:20:06.335Z,65.04
2022-07-25T17:22:34.354Z,65.34
2022-07-25T17:25:03.651Z,66.41
2022-07-25T17:27:31.882Z,67.07
2022-07-25T17:29:59.892Z,67.88
2022-07-25T17:32:29.887Z,67.95
2022-07-25T17:34:58.309Z,68.63
2022-07-25T17:37:27.720Z,69.25
2022-07-25T17:39:56.253Z,69.66
2022-07-25T17:42:25.896Z,70.22
2022-07-25T17:44:54.222Z,70.43
2022-07-25T17:47:23.587Z,71.30
2022-07-25T17:49:51.739Z,71.52
2022-07-25T17:52:19.643Z,72.08
2022-07-25T17:54:47.557Z,72.04
2022-07-25T17:57:15.810Z,72.76
2022-07-25T17:59:45.141Z,72.96
2022-07-25T18:02:14.251Z,73.40
2022-07-25T18:04:42.337Z,73.58
2022-07-25T18:07:10.682Z,73.60
2022-07-25T18:09:38.588Z,73.71
2022-07-25T18:12:07.789Z,74.10
2022-07-25T18:14:35.701Z,74.01
2022-07-25T18:17:06.227Z,74.05
2022-07-25T18:19:34.458Z,74.08
2022-07-25T18:22:02.299Z,73.74
2022-07-25T18:24:30.931Z,73.92
2022-07-25T18:26:59.724Z,73.87
2022-07-25T18:29:27.737Z,74.58
2022-07-25T18:31:55.651Z,75.42
2022-07-25T18:34:25.180Z,76.18
2022-07-25T18:36:53.138Z,76.60
2022-07-25T18:39:21.020Z,76.98
2022-07-25T18:41:49.164Z,76.84
2022-07-25T18:44:17.616Z,77.14
2022-07-25T18:46:46.927Z,77.21
2022-07-25T18:49:15.229Z,77.68
2022-07-25T18:51:44.630Z,77.46
2022-07-25T18:54:12.471Z,77.65
2022-07-25T18:56:40.633Z,77.73
2022-07-25T18:59:09.292Z,77.71
2022-07-25T19:01:37.706Z,77.74
2022-07-25T19:04:06.748Z,77.78
2022-07-25T19:06:35.073Z,78.04
2022-07-25T19:09:04.954Z,77.92
2022-07-25T19:11:33.454Z,77.92
2022-07-25T19:14:01.430Z,78.29
2022-07-25T19:16:29.336Z,78.55
2022-07-25T19:18:57.590Z,78.49
2022-07-25T19:21:25.867Z,78.29
2022-07-25T19:23:53.842Z,78.19
2022-07-25T19:26:23.498Z,78.58
2022-07-25T19:28:51.755Z,78.54
2022-07-25T19:31:19.739Z,78.27
2022-07-25T19:33:48.121Z,78.14
2022-07-25T19:36:16.059Z,78.07
2022-07-25T19:38:43.999Z,78.06
2022-07-25T19:41:12.207Z,77.92
2022-07-25T19:43:41.817Z,78.11
2022-07-25T19:46:09.804Z,78.11
2022-07-25T19:48:38.307Z,77.96
2022-07-25T19:51:06.523Z,77.82
2022-07-25T19:53:34.413Z,77.86
2022-07-25T19:56:02.652Z,77.79
2022-07-25T19:58:34.100Z,77.76
2022-07-25T20:01:06.236Z,77.77
2022-07-25T20:03:34.211Z,77.55
2022-07-25T20:06:07.576Z,77.78
2022-07-25T20:08:36.419Z,77.98
2022-07-25T20:11:04.436Z,78.05
2022-07-25T20:13:32.332Z,78.16
2022-07-25T20:16:00.622Z,78.27
2022-07-25T20:18:29.855Z,78.28
2022-07-25T20:20:57.846Z,78.13
2022-07-25T20:23:26.925Z,78.21
2022-07-25T20:25:55.089Z,78.07
2022-07-25T20:28:22.937Z,78.18
2022-07-25T20:30:51.157Z,78.25
2022-07-25T20:33:19.547Z,78.40
2022-07-25T20:35:48.797Z,78.77
2022-07-25T20:38:17.029Z,78.84
2022-07-25T20:40:49.589Z,78.84
2022-07-25T20:43:18.359Z,78.80
2022-07-25T20:45:47.524Z,78.83
2022-07-25T20:48:15.683Z,78.94
2022-07-25T20:50:44.765Z,79.01
2022-07-25T20:53:14.188Z,79.16
2022-07-25T20:55:42.341Z,79.03
2022-07-25T20:58:10.658Z,79.11
2022-07-25T21:00:38.582Z,79.11
2022-07-25T21:03:08.096Z,79.18
2022-07-25T21:05:37.933Z,79.13
2022-07-25T21:08:06.443Z,79.00
2022-07-25T21:10:35.872Z,79.06
2022-07-25T21:13:04.066Z,79.09
2022-07-25T21:15:32.056Z,79.01
2022-07-25T21:18:00.093Z,78.76
2022-07-25T21:20:28.522Z,78.48
2022-07-25T21:22:56.414Z,78.51
2022-07-25T21:25:24.401Z,78.40
2022-07-25T21:27:53.841Z,78.22
2022-07-25T21:30:21.765Z,78.12
2022-07-25T21:32:49.741Z,77.85
2022-07-25T21:35:18.362Z,77.96
2022-07-25T21:37:46.266Z,77.75
2022-07-25T21:40:14.988Z,77.63
2022-07-25T21:42:43.602Z,77.53
2022-07-25T21:45:13.616Z,77.41
2022-07-25T21:47:41.509Z,77.19
2022-07-25T21:50:28.358Z,77.10
2022-07-25T21:52:56.540Z,77.15
2022-07-25T21:55:25.189Z,77.13
2022-07-25T21:57:54.158Z,76.96
2022-07-25T22:00:23.706Z,77.01
2022-07-25T22:02:51.800Z,76.87
2022-07-25T22:05:20.864Z,76.95
2022-07-25T22:07:48.884Z,76.81
2022-07-25T22:10:19.005Z,76.91
2022-07-25T22:12:47.097Z,77.13
2022-07-25T22:15:15.790Z,76.97
2022-07-25T22:17:49.540Z,77.00
2022-07-25T22:20:19.225Z,77.11
2022-07-25T22:22:47.826Z,77.09
2022-07-25T22:25:16.686Z,76.92
2022-07-25T22:27:45.242Z,77.31
2022-07-25T22:30:18.796Z,77.04
2022-07-25T22:32:49.606Z,77.24
2022-07-25T22:35:18.087Z,77.47
2022-07-25T22:37:46.122Z,77.61
2022-07-25T22:40:14.836Z,77.78
2022-07-25T22:42:42.790Z,77.99
2022-07-25T22:45:11.656Z,78.38
2022-07-25T22:47:39.872Z,78.37
2022-07-25T22:50:10.880Z,78.54
2022-07-25T22:52:38.778Z,78.66
2022-07-25T22:55:07.670Z,78.83
2022-07-25T22:57:36.983Z,79.04
2022-07-25T23:00:08.688Z,79.35
2022-07-25T23:02:36.718Z,79.40
2022-07-25T23:05:05.281Z,79.32
2022-07-25T23:07:35.198Z,79.50
2022-07-25T23:10:03.569Z,79.62
2022-07-25T23:12:31.440Z,79.79
2022-07-25T23:14:59.498Z,80.03
2022-07-25T23:17:27.425Z,80.17
2022-07-25T23:19:56.819Z,80.82
2022-07-25T23:22:26.918Z,81.27
2022-07-25T23:24:56.301Z,82.06
2022-07-25T23:27:24.976Z,82.59
2022-07-25T23:29:52.974Z,82.85
2022-07-25T23:32:21.074Z,83.07
2022-07-25T23:34:49.033Z,82.91
2022-07-25T23:37:17.203Z,83.63
2022-07-25T23:39:45.195Z,84.44
2022-07-25T23:42:14.442Z,85.28
2022-07-25T23:44:44.453Z,85.97
2022-07-25T23:47:12.652Z,86.59
2022-07-25T23:49:41.175Z,87.21
2022-07-25T23:52:09.224Z,87.69
2022-07-25T23:54:38.676Z,87.88
2022-07-25T23:57:07.237Z,88.22
2022-07-25T23:59:37.529Z,88.91
